sensor_id;sensor_type;location;lat;lon;timestamp;pressure;altitude;pressure_sealevel;temperature;humidity
12973;BME280;6551;51.056;9.466;2023-01-31T00:01:37;98068.84;;;6.40;72.73
12973;BME280;6551;51.056;9.466;2023-01-31T00:04:10;98069.56;;;6.19;73.23
12973;BME280;6551;51.056;9.466;2023-01-31T00:06:42;98067.22;;;6.24;73.88
12973;BME280;6551;51.056;9.466;2023-01-31T00:09:10;98073.75;;;6.14;74.03
12973;BME280;6551;51.056;9.466;2023-01-31T00:11:38;98079.28;;;5.89;75.00
12973;BME280;6551;51.056;9.466;2023-01-31T00:14:06;98077.00;;;5.86;76.19
12973;BME280;6551;51.056;9.466;2023-01-31T00:16:33;98086.56;;;5.87;76.00
12973;BME280;6551;51.056;9.466;2023-01-31T00:19:02;98086.13;;;5.76;76.33
12973;BME280;6551;51.056;9.466;2023-01-31T00:21:29;98080.94;;;5.91;76.45
12973;BME280;6551;51.056;9.466;2023-01-31T00:23:57;98088.22;;;5.88;76.92
12973;BME280;6551;51.056;9.466;2023-01-31T00:26:32;98088.31;;;5.72;77.21
12973;BME280;6551;51.056;9.466;2023-01-31T00:29:02;98083.97;;;5.79;77.67
12973;BME280;6551;51.056;9.466;2023-01-31T00:31:31;98083.63;;;5.82;77.66
12973;BME280;6551;51.056;9.466;2023-01-31T00:33:58;98087.84;;;5.69;78.19
12973;BME280;6551;51.056;9.466;2023-01-31T00:36:28;98090.59;;;5.75;78.56
12973;BME280;6551;51.056;9.466;2023-01-31T00:38:58;98078.50;;;5.58;78.60
12973;BME280;6551;51.056;9.466;2023-01-31T00:41:27;98084.88;;;5.72;78.87
12973;BME280;6551;51.056;9.466;2023-01-31T00:43:53;98092.78;;;5.72;78.96
12973;BME280;6551;51.056;9.466;2023-01-31T00:46:19;98088.56;;;5.63;78.84
12973;BME280;6551;51.056;9.466;2023-01-31T00:48:47;98089.84;;;5.67;79.10
12973;BME280;6551;51.056;9.466;2023-01-31T00:51:14;98093.94;;;5.69;79.09
12973;BME280;6551;51.056;9.466;2023-01-31T00:53:41;98091.19;;;5.63;79.12
12973;BME280;6551;51.056;9.466;2023-01-31T00:56:19;98098.44;;;5.83;79.01
12973;BME280;6551;51.056;9.466;2023-01-31T00:58:48;98099.78;;;5.87;78.62
12973;BME280;6551;51.056;9.466;2023-01-31T01:01:26;98109.53;;;5.87;78.18
12973;BME280;6551;51.056;9.466;2023-01-31T01:03:55;98111.34;;;5.86;78.73
12973;BME280;6551;51.056;9.466;2023-01-31T01:06:23;98115.47;;;5.81;78.82
12973;BME280;6551;51.056;9.466;2023-01-31T01:08:49;98123.41;;;6.04;77.61
12973;BME280;6551;51.056;9.466;2023-01-31T01:11:23;98121.09;;;5.86;77.36
12973;BME280;6551;51.056;9.466;2023-01-31T01:13:51;98120.66;;;5.97;77.11
12973;BME280;6551;51.056;9.466;2023-01-31T01:16:29;98123.72;;;5.86;77.86
12973;BME280;6551;51.056;9.466;2023-01-31T01:18:59;98121.19;;;5.93;77.32
12973;BME280;6551;51.056;9.466;2023-01-31T01:21:29;98113.66;;;5.81;77.08
12973;BME280;6551;51.056;9.466;2023-01-31T01:23:59;98119.38;;;5.93;77.20
12973;BME280;6551;51.056;9.466;2023-01-31T01:26:30;98131.06;;;5.99;76.27
12973;BME280;6551;51.056;9.466;2023-01-31T01:28:59;98139.94;;;5.83;77.01
12973;BME280;6551;51.056;9.466;2023-01-31T01:31:27;98140.59;;;5.85;76.20
12973;BME280;6551;51.056;9.466;2023-01-31T01:34:04;98151.84;;;6.02;75.81
12973;BME280;6551;51.056;9.466;2023-01-31T01:36:36;98153.19;;;5.98;74.88
12973;BME280;6551;51.056;9.466;2023-01-31T01:39:06;98148.44;;;5.93;74.92
12973;BME280;6551;51.056;9.466;2023-01-31T01:41:34;98147.63;;;5.93;74.54
12973;BME280;6551;51.056;9.466;2023-01-31T01:44:39;98148.72;;;6.21;73.70
12973;BME280;6551;51.056;9.466;2023-01-31T01:46:49;98144.19;;;6.29;72.51
12973;BME280;6551;51.056;9.466;2023-01-31T01:51:52;98135.97;;;6.24;71.90
12973;BME280;6551;51.056;9.466;2023-01-31T01:54:27;98130.59;;;6.32;71.82
12973;BME280;6551;51.056;9.466;2023-01-31T01:57:05;98139.47;;;6.17;71.60
12973;BME280;6551;51.056;9.466;2023-01-31T01:59:42;98132.88;;;6.35;70.99
12973;BME280;6551;51.056;9.466;2023-01-31T02:02:11;98138.53;;;6.32;71.15
12973;BME280;6551;51.056;9.466;2023-01-31T02:04:39;98137.00;;;6.38;70.84
12973;BME280;6551;51.056;9.466;2023-01-31T02:07:07;98127.28;;;6.30;71.32
12973;BME280;6551;51.056;9.466;2023-01-31T02:12:20;98129.50;;;6.41;71.00
12973;BME280;6551;51.056;9.466;2023-01-31T02:14:46;98138.59;;;6.39;70.42
12973;BME280;6551;51.056;9.466;2023-01-31T02:17:17;98142.28;;;6.38;70.78
12973;BME280;6551;51.056;9.466;2023-01-31T02:20:14;98142.19;;;6.46;70.84
12973;BME280;6551;51.056;9.466;2023-01-31T02:29:22;98140.06;;;6.27;69.90
12973;BME280;6551;51.056;9.466;2023-01-31T02:51:31;98167.72;;;6.54;69.42
12973;BME280;6551;51.056;9.466;2023-01-31T02:54:20;98168.72;;;6.38;69.61
12973;BME280;6551;51.056;9.466;2023-01-31T02:56:49;98165.81;;;6.33;69.71
12973;BME280;6551;51.056;9.466;2023-01-31T02:59:23;98161.25;;;6.04;70.32
12973;BME280;6551;51.056;9.466;2023-01-31T03:01:59;98182.31;;;6.12;70.67
12973;BME280;6551;51.056;9.466;2023-01-31T03:04:32;98186.78;;;6.12;70.42
12973;BME280;6551;51.056;9.466;2023-01-31T03:07:11;98182.53;;;6.25;70.58
12973;BME280;6551;51.056;9.466;2023-01-31T03:13:11;98179.25;;;6.23;71.21
12973;BME280;6551;51.056;9.466;2023-01-31T03:16:20;98186.09;;;6.18;71.84
12973;BME280;6551;51.056;9.466;2023-01-31T03:19:24;98186.31;;;6.08;72.08
12973;BME280;6551;51.056;9.466;2023-01-31T03:22:04;98188.16;;;6.08;72.97
12973;BME280;6551;51.056;9.466;2023-01-31T03:24:32;98181.75;;;6.02;73.39
12973;BME280;6551;51.056;9.466;2023-01-31T03:27:00;98182.88;;;6.08;73.48
12973;BME280;6551;51.056;9.466;2023-01-31T03:29:28;98189.28;;;6.13;73.28
12973;BME280;6551;51.056;9.466;2023-01-31T03:32:30;98192.50;;;6.01;74.23
12973;BME280;6551;51.056;9.466;2023-01-31T03:35:00;98187.50;;;6.06;73.79
12973;BME280;6551;51.056;9.466;2023-01-31T03:38:05;98191.25;;;6.11;73.56
12973;BME280;6551;51.056;9.466;2023-01-31T03:40:49;98183.97;;;6.13;73.67
12973;BME280;6551;51.056;9.466;2023-01-31T03:43:35;98180.22;;;6.08;74.08
12973;BME280;6551;51.056;9.466;2023-01-31T03:46:18;98187.25;;;6.15;74.26
12973;BME280;6551;51.056;9.466;2023-01-31T03:48:49;98185.50;;;6.08;73.97
12973;BME280;6551;51.056;9.466;2023-01-31T03:51:24;98187.50;;;6.06;74.49
12973;BME280;6551;51.056;9.466;2023-01-31T03:54:01;98179.13;;;6.02;74.07
12973;BME280;6551;51.056;9.466;2023-01-31T03:59:14;98187.53;;;6.20;74.32
12973;BME280;6551;51.056;9.466;2023-01-31T04:01:46;98181.56;;;6.04;74.13
12973;BME280;6551;51.056;9.466;2023-01-31T04:04:30;98176.56;;;6.09;74.48
12973;BME280;6551;51.056;9.466;2023-01-31T04:06:58;98172.94;;;6.10;73.88
12973;BME280;6551;51.056;9.466;2023-01-31T04:09:25;98169.25;;;5.96;74.24
12973;BME280;6551;51.056;9.466;2023-01-31T04:11:52;98177.28;;;6.03;74.08
12973;BME280;6551;51.056;9.466;2023-01-31T04:14:18;98171.25;;;5.94;74.11
12973;BME280;6551;51.056;9.466;2023-01-31T04:16:45;98173.13;;;5.85;73.82
12973;BME280;6551;51.056;9.466;2023-01-31T04:19:12;98178.06;;;5.80;74.29
12973;BME280;6551;51.056;9.466;2023-01-31T04:21:38;98170.13;;;5.88;74.20
12973;BME280;6551;51.056;9.466;2023-01-31T04:24:04;98164.03;;;5.88;74.29
12973;BME280;6551;51.056;9.466;2023-01-31T04:26:29;98167.03;;;5.85;74.18
12973;BME280;6551;51.056;9.466;2023-01-31T04:28:55;98169.03;;;5.75;74.06
12973;BME280;6551;51.056;9.466;2023-01-31T04:31:21;98165.53;;;5.82;73.91
12973;BME280;6551;51.056;9.466;2023-01-31T04:33:48;98165.13;;;5.94;74.10
12973;BME280;6551;51.056;9.466;2023-01-31T04:36:15;98169.75;;;5.92;74.01
12973;BME280;6551;51.056;9.466;2023-01-31T04:38:41;98164.56;;;5.75;74.20
12973;BME280;6551;51.056;9.466;2023-01-31T04:41:06;98153.06;;;5.68;74.40
12973;BME280;6551;51.056;9.466;2023-01-31T04:43:32;98153.56;;;5.64;74.25
12973;BME280;6551;51.056;9.466;2023-01-31T04:46:00;98164.13;;;5.72;74.10
12973;BME280;6551;51.056;9.466;2023-01-31T04:48:26;98148.78;;;5.67;74.12
12973;BME280;6551;51.056;9.466;2023-01-31T04:50:52;98158.50;;;5.67;73.93
12973;BME280;6551;51.056;9.466;2023-01-31T04:53:18;98164.72;;;5.51;74.44
12973;BME280;6551;51.056;9.466;2023-01-31T04:55:47;98163.78;;;5.67;74.87
12973;BME280;6551;51.056;9.466;2023-01-31T04:58:12;98161.50;;;5.64;74.93
12973;BME280;6551;51.056;9.466;2023-01-31T05:00:38;98169.28;;;5.65;74.84
12973;BME280;6551;51.056;9.466;2023-01-31T05:03:04;98174.56;;;5.65;75.56
12973;BME280;6551;51.056;9.466;2023-01-31T05:05:32;98164.28;;;5.70;75.54
12973;BME280;6551;51.056;9.466;2023-01-31T05:07:59;98164.47;;;5.69;76.23
12973;BME280;6551;51.056;9.466;2023-01-31T05:10:25;98165.72;;;5.50;76.51
12973;BME280;6551;51.056;9.466;2023-01-31T05:12:52;98153.91;;;5.69;75.72
12973;BME280;6551;51.056;9.466;2023-01-31T05:15:18;98154.81;;;5.53;75.83
12973;BME280;6551;51.056;9.466;2023-01-31T05:17:50;98150.53;;;5.52;76.08
12973;BME280;6551;51.056;9.466;2023-01-31T05:20:17;98141.78;;;5.52;76.51
12973;BME280;6551;51.056;9.466;2023-01-31T05:22:46;98140.09;;;5.59;76.91
12973;BME280;6551;51.056;9.466;2023-01-31T05:25:14;98139.97;;;5.52;76.76
12973;BME280;6551;51.056;9.466;2023-01-31T05:27:40;98132.75;;;5.46;77.32
12973;BME280;6551;51.056;9.466;2023-01-31T05:30:07;98130.53;;;5.58;76.32
12973;BME280;6551;51.056;9.466;2023-01-31T05:32:36;98135.34;;;5.54;76.54
12973;BME280;6551;51.056;9.466;2023-01-31T05:35:02;98143.41;;;5.53;75.89
12973;BME280;6551;51.056;9.466;2023-01-31T05:37:31;98150.75;;;5.43;76.38
12973;BME280;6551;51.056;9.466;2023-01-31T05:39:58;98162.31;;;5.42;76.74
12973;BME280;6551;51.056;9.466;2023-01-31T05:42:24;98147.63;;;5.39;76.71
12973;BME280;6551;51.056;9.466;2023-01-31T05:44:53;98148.94;;;5.43;76.78
12973;BME280;6551;51.056;9.466;2023-01-31T05:47:22;98148.81;;;5.37;77.59
12973;BME280;6551;51.056;9.466;2023-01-31T05:49:50;98160.50;;;5.42;77.56
12973;BME280;6551;51.056;9.466;2023-01-31T05:52:16;98151.63;;;5.35;77.62
12973;BME280;6551;51.056;9.466;2023-01-31T05:54:42;98149.63;;;5.37;77.50
12973;BME280;6551;51.056;9.466;2023-01-31T05:57:11;98148.03;;;5.28;77.86
12973;BME280;6551;51.056;9.466;2023-01-31T05:59:39;98138.28;;;5.28;77.73
12973;BME280;6551;51.056;9.466;2023-01-31T06:02:05;98143.41;;;5.30;77.58
12973;BME280;6551;51.056;9.466;2023-01-31T06:04:34;98138.97;;;5.22;78.05
12973;BME280;6551;51.056;9.466;2023-01-31T06:07:00;98138.53;;;5.19;78.09
12973;BME280;6551;51.056;9.466;2023-01-31T06:09:26;98146.13;;;5.14;78.58
12973;BME280;6551;51.056;9.466;2023-01-31T06:11:55;98147.91;;;5.21;78.28
12973;BME280;6551;51.056;9.466;2023-01-31T06:14:22;98146.59;;;5.17;78.54
12973;BME280;6551;51.056;9.466;2023-01-31T06:16:48;98144.78;;;5.18;78.56
12973;BME280;6551;51.056;9.466;2023-01-31T06:19:14;98140.38;;;5.10;78.34
12973;BME280;6551;51.056;9.466;2023-01-31T06:21:41;98135.09;;;5.10;78.90
12973;BME280;6551;51.056;9.466;2023-01-31T06:24:07;98127.97;;;5.19;78.92
12973;BME280;6551;51.056;9.466;2023-01-31T06:26:33;98130.50;;;5.04;78.58
12973;BME280;6551;51.056;9.466;2023-01-31T06:29:00;98135.78;;;5.04;78.66
12973;BME280;6551;51.056;9.466;2023-01-31T06:31:27;98128.38;;;5.00;78.94
12973;BME280;6551;51.056;9.466;2023-01-31T06:33:54;98143.66;;;5.12;78.66
12973;BME280;6551;51.056;9.466;2023-01-31T06:36:21;98144.84;;;5.10;78.37
12973;BME280;6551;51.056;9.466;2023-01-31T06:38:52;98132.41;;;5.18;78.82
12973;BME280;6551;51.056;9.466;2023-01-31T06:41:19;98147.78;;;5.15;78.55
12973;BME280;6551;51.056;9.466;2023-01-31T06:43:45;98142.88;;;5.04;78.76
12973;BME280;6551;51.056;9.466;2023-01-31T06:46:12;98151.53;;;5.20;78.54
12973;BME280;6551;51.056;9.466;2023-01-31T06:48:39;98147.91;;;5.21;78.37
12973;BME280;6551;51.056;9.466;2023-01-31T06:51:05;98152.91;;;5.39;77.80
12973;BME280;6551;51.056;9.466;2023-01-31T06:53:32;98155.91;;;5.36;78.40
12973;BME280;6551;51.056;9.466;2023-01-31T06:55:59;98155.50;;;5.47;78.35
12973;BME280;6551;51.056;9.466;2023-01-31T06:58:28;98160.78;;;5.47;78.03
12973;BME280;6551;51.056;9.466;2023-01-31T07:00:54;98164.91;;;5.50;78.10
12973;BME280;6551;51.056;9.466;2023-01-31T07:03:19;98157.16;;;5.48;77.49
12973;BME280;6551;51.056;9.466;2023-01-31T07:05:48;98158.75;;;5.57;77.36
12973;BME280;6551;51.056;9.466;2023-01-31T07:08:13;98151.66;;;5.58;77.89
12973;BME280;6551;51.056;9.466;2023-01-31T07:10:39;98159.75;;;5.56;78.03
12973;BME280;6551;51.056;9.466;2023-01-31T07:13:05;98155.28;;;5.57;78.23
12973;BME280;6551;51.056;9.466;2023-01-31T07:15:31;98140.63;;;5.54;78.08
12973;BME280;6551;51.056;9.466;2023-01-31T07:18:01;98140.22;;;5.65;78.34
12973;BME280;6551;51.056;9.466;2023-01-31T07:20:28;98132.28;;;5.65;77.93
12973;BME280;6551;51.056;9.466;2023-01-31T07:22:57;98120.53;;;5.68;77.96
12973;BME280;6551;51.056;9.466;2023-01-31T07:25:25;98123.25;;;5.60;78.13
12973;BME280;6551;51.056;9.466;2023-01-31T07:27:53;98121.50;;;5.52;78.68
12973;BME280;6551;51.056;9.466;2023-01-31T07:30:19;98123.47;;;5.50;78.56
12973;BME280;6551;51.056;9.466;2023-01-31T07:32:46;98112.44;;;5.47;79.32
12973;BME280;6551;51.056;9.466;2023-01-31T07:35:11;98125.47;;;5.48;78.93
12973;BME280;6551;51.056;9.466;2023-01-31T07:37:38;98105.22;;;5.41;79.43
12973;BME280;6551;51.056;9.466;2023-01-31T07:40:11;98111.78;;;5.67;79.06
12973;BME280;6551;51.056;9.466;2023-01-31T07:42:39;98107.47;;;5.74;78.78
12973;BME280;6551;51.056;9.466;2023-01-31T07:45:07;98116.03;;;5.76;78.89
12973;BME280;6551;51.056;9.466;2023-01-31T07:47:35;98115.44;;;5.66;78.25
12973;BME280;6551;51.056;9.466;2023-01-31T07:50:02;98110.38;;;5.79;79.01
12973;BME280;6551;51.056;9.466;2023-01-31T07:52:30;98106.72;;;5.80;78.36
12973;BME280;6551;51.056;9.466;2023-01-31T07:54:57;98122.09;;;5.85;78.38
12973;BME280;6551;51.056;9.466;2023-01-31T07:57:24;98120.97;;;5.79;78.86
12973;BME280;6551;51.056;9.466;2023-01-31T07:59:49;98117.41;;;5.64;78.93
12973;BME280;6551;51.056;9.466;2023-01-31T08:02:17;98110.09;;;5.74;78.85
12973;BME280;6551;51.056;9.466;2023-01-31T08:05:04;98104.69;;;5.68;78.71
12973;BME280;6551;51.056;9.466;2023-01-31T08:07:31;98099.19;;;5.77;78.55
12973;BME280;6551;51.056;9.466;2023-01-31T08:09:58;98102.53;;;5.71;78.95
12973;BME280;6551;51.056;9.466;2023-01-31T08:12:23;98113.25;;;5.47;79.31
12973;BME280;6551;51.056;9.466;2023-01-31T08:14:50;98111.50;;;5.62;79.25
12973;BME280;6551;51.056;9.466;2023-01-31T08:17:16;98102.25;;;5.66;78.81
12973;BME280;6551;51.056;9.466;2023-01-31T08:19:42;98113.09;;;5.71;78.87
12973;BME280;6551;51.056;9.466;2023-01-31T08:22:09;98112.63;;;5.68;78.62
12973;BME280;6551;51.056;9.466;2023-01-31T08:24:37;98111.56;;;5.77;78.74
12973;BME280;6551;51.056;9.466;2023-01-31T08:27:03;98104.06;;;5.88;77.93
12973;BME280;6551;51.056;9.466;2023-01-31T08:29:30;98109.56;;;5.79;78.39
12973;BME280;6551;51.056;9.466;2023-01-31T08:31:57;98106.03;;;5.64;79.09
12973;BME280;6551;51.056;9.466;2023-01-31T08:34:24;98093.59;;;5.72;78.63
12973;BME280;6551;51.056;9.466;2023-01-31T08:36:49;98091.69;;;5.66;78.53
12973;BME280;6551;51.056;9.466;2023-01-31T08:39:15;98094.47;;;5.65;78.62
12973;BME280;6551;51.056;9.466;2023-01-31T08:41:41;98095.31;;;5.88;78.59
12973;BME280;6551;51.056;9.466;2023-01-31T08:44:07;98083.03;;;5.72;79.01
12973;BME280;6551;51.056;9.466;2023-01-31T08:46:36;98072.22;;;5.82;78.38
12973;BME280;6551;51.056;9.466;2023-01-31T08:49:05;98097.41;;;5.93;78.27
12973;BME280;6551;51.056;9.466;2023-01-31T08:51:32;98097.41;;;5.93;77.93
12973;BME280;6551;51.056;9.466;2023-01-31T08:53:59;98101.28;;;5.82;78.77
12973;BME280;6551;51.056;9.466;2023-01-31T08:56:25;98094.00;;;5.84;78.73
12973;BME280;6551;51.056;9.466;2023-01-31T08:58:56;98104.22;;;5.87;78.70
12973;BME280;6551;51.056;9.466;2023-01-31T09:01:22;98101.38;;;5.97;78.53
12973;BME280;6551;51.056;9.466;2023-01-31T09:03:49;98104.22;;;5.87;78.51
12973;BME280;6551;51.056;9.466;2023-01-31T09:06:22;98091.84;;;5.87;78.69
12973;BME280;6551;51.056;9.466;2023-01-31T09:08:49;98091.31;;;5.92;78.25
12973;BME280;6551;51.056;9.466;2023-01-31T09:11:15;98076.81;;;5.88;78.50
12973;BME280;6551;51.056;9.466;2023-01-31T09:13:44;98057.31;;;5.89;78.76
12973;BME280;6551;51.056;9.466;2023-01-31T09:16:12;98075.28;;;5.94;78.11
12973;BME280;6551;51.056;9.466;2023-01-31T09:18:40;98071.09;;;5.99;78.32
12973;BME280;6551;51.056;9.466;2023-01-31T09:21:15;98071.78;;;6.16;77.78
12973;BME280;6551;51.056;9.466;2023-01-31T09:23:47;98080.88;;;6.13;77.72
12973;BME280;6551;51.056;9.466;2023-01-31T09:26:14;98069.66;;;6.11;77.20
12973;BME280;6551;51.056;9.466;2023-01-31T09:28:42;98078.50;;;6.18;77.56
12973;BME280;6551;51.056;9.466;2023-01-31T09:31:12;98065.66;;;6.15;77.31
12973;BME280;6551;51.056;9.466;2023-01-31T09:33:39;98066.84;;;6.13;77.09
12973;BME280;6551;51.056;9.466;2023-01-31T09:36:09;98051.16;;;6.11;77.30
12973;BME280;6551;51.056;9.466;2023-01-31T09:38:36;98060.44;;;6.07;77.79
12973;BME280;6551;51.056;9.466;2023-01-31T09:41:36;98055.53;;;6.33;76.92
12973;BME280;6551;51.056;9.466;2023-01-31T09:47:20;98054.44;;;6.28;77.28
12973;BME280;6551;51.056;9.466;2023-01-31T09:52:22;98043.94;;;6.20;77.01
12973;BME280;6551;51.056;9.466;2023-01-31T09:54:49;98034.41;;;6.19;76.75
12973;BME280;6551;51.056;9.466;2023-01-31T10:03:20;98022.88;;;6.12;77.27
12973;BME280;6551;51.056;9.466;2023-01-31T10:06:29;98027.44;;;6.03;77.88
12973;BME280;6551;51.056;9.466;2023-01-31T10:09:41;98022.81;;;6.05;77.49
12973;BME280;6551;51.056;9.466;2023-01-31T10:12:29;98010.00;;;5.79;77.96
12973;BME280;6551;51.056;9.466;2023-01-31T10:15:19;98006.53;;;5.79;78.25
12973;BME280;6551;51.056;9.466;2023-01-31T10:17:56;98030.09;;;5.66;78.82
12973;BME280;6551;51.056;9.466;2023-01-31T10:21:02;98005.03;;;5.62;78.58
12973;BME280;6551;51.056;9.466;2023-01-31T10:26:29;98015.72;;;5.68;78.78
12973;BME280;6551;51.056;9.466;2023-01-31T10:29:30;98016.34;;;5.70;79.46
12973;BME280;6551;51.056;9.466;2023-01-31T10:32:23;98006.31;;;5.66;78.59
12973;BME280;6551;51.056;9.466;2023-01-31T10:35:25;97998.13;;;5.61;78.80
12973;BME280;6551;51.056;9.466;2023-01-31T10:40:44;97974.31;;;5.46;79.92
12973;BME280;6551;51.056;9.466;2023-01-31T10:43:40;97956.66;;;5.47;79.73
12973;BME280;6551;51.056;9.466;2023-01-31T10:46:10;97966.88;;;5.50;79.19
12973;BME280;6551;51.056;9.466;2023-01-31T10:48:37;97967.38;;;5.45;79.22
12973;BME280;6551;51.056;9.466;2023-01-31T10:56:55;97971.47;;;5.48;79.92
12973;BME280;6551;51.056;9.466;2023-01-31T10:59:36;97968.75;;;5.41;79.98
12973;BME280;6551;51.056;9.466;2023-01-31T11:02:25;97970.84;;;5.46;79.96
12973;BME280;6551;51.056;9.466;2023-01-31T11:04:56;97956.66;;;5.47;80.04
12973;BME280;6551;51.056;9.466;2023-01-31T11:07:28;97965.75;;;5.44;80.03
12973;BME280;6551;51.056;9.466;2023-01-31T11:09:56;97942.13;;;5.28;80.21
12973;BME280;6551;51.056;9.466;2023-01-31T11:13:06;97937.94;;;5.33;80.33
12973;BME280;6551;51.056;9.466;2023-01-31T11:15:42;97935.25;;;5.56;80.24
12973;BME280;6551;51.056;9.466;2023-01-31T11:18:14;97933.09;;;5.60;79.99
12973;BME280;6551;51.056;9.466;2023-01-31T11:20:48;97916.84;;;5.48;79.42
12973;BME280;6551;51.056;9.466;2023-01-31T11:23:20;97916.78;;;5.71;79.48
12973;BME280;6551;51.056;9.466;2023-01-31T11:25:49;97911.97;;;5.74;79.25
12973;BME280;6551;51.056;9.466;2023-01-31T11:28:39;97907.94;;;5.64;79.49
12973;BME280;6551;51.056;9.466;2023-01-31T11:31:19;97920.69;;;5.60;79.97
12973;BME280;6551;51.056;9.466;2023-01-31T11:34:28;97907.75;;;5.65;80.19
12973;BME280;6551;51.056;9.466;2023-01-31T11:37:09;97905.72;;;5.53;80.61
12973;BME280;6551;51.056;9.466;2023-01-31T11:39:39;97903.56;;;5.56;80.47
12973;BME280;6551;51.056;9.466;2023-01-31T11:42:15;97908.31;;;5.46;80.27
12973;BME280;6551;51.056;9.466;2023-01-31T11:45:16;97902.94;;;5.69;80.65
12973;BME280;6551;51.056;9.466;2023-01-31T11:47:46;97879.81;;;5.71;80.32
12973;BME280;6551;51.056;9.466;2023-01-31T11:50:33;97885.56;;;5.74;80.00
12973;BME280;6551;51.056;9.466;2023-01-31T11:53:20;97877.53;;;5.97;79.18
12973;BME280;6551;51.056;9.466;2023-01-31T11:55:48;97865.13;;;5.83;79.47
12973;BME280;6551;51.056;9.466;2023-01-31T11:58:32;97850.13;;;5.69;79.99
12973;BME280;6551;51.056;9.466;2023-01-31T12:01:34;97840.53;;;5.82;79.86
12973;BME280;6551;51.056;9.466;2023-01-31T12:04:21;97833.44;;;5.83;79.66
12973;BME280;6551;51.056;9.466;2023-01-31T12:07:39;97815.66;;;5.92;80.02
12973;BME280;6551;51.056;9.466;2023-01-31T12:09:59;97815.78;;;5.69;79.79
12973;BME280;6551;51.056;9.466;2023-01-31T12:12:34;97817.22;;;5.86;80.29
12973;BME280;6551;51.056;9.466;2023-01-31T12:15:04;97816.31;;;5.94;79.29
12973;BME280;6551;51.056;9.466;2023-01-31T12:17:46;97821.84;;;5.99;79.64
12973;BME280;6551;51.056;9.466;2023-01-31T12:20:57;97807.56;;;5.78;79.84
12973;BME280;6551;51.056;9.466;2023-01-31T12:23:39;97823.31;;;5.86;80.15
12973;BME280;6551;51.056;9.466;2023-01-31T12:29:58;97806.34;;;6.10;79.06
12973;BME280;6551;51.056;9.466;2023-01-31T12:32:57;97800.47;;;5.94;79.68
12973;BME280;6551;51.056;9.466;2023-01-31T12:42:06;97766.88;;;6.09;78.87
12973;BME280;6551;51.056;9.466;2023-01-31T12:44:49;97752.06;;;5.93;79.54
12973;BME280;6551;51.056;9.466;2023-01-31T12:48:12;97760.09;;;6.00;79.68
12973;BME280;6551;51.056;9.466;2023-01-31T13:06:36;97774.41;;;6.12;80.43
12973;BME280;6551;51.056;9.466;2023-01-31T13:09:37;97790.41;;;6.04;80.07
12973;BME280;6551;51.056;9.466;2023-01-31T13:12:19;97778.34;;;6.16;80.52
12973;BME280;6551;51.056;9.466;2023-01-31T13:17:36;97757.69;;;6.05;79.75
12973;BME280;6551;51.056;9.466;2023-01-31T13:20:35;97769.94;;;6.33;79.74
12973;BME280;6551;51.056;9.466;2023-01-31T13:23:50;97748.88;;;6.19;80.29
12973;BME280;6551;51.056;9.466;2023-01-31T13:26:22;97751.94;;;6.01;80.68
12973;BME280;6551;51.056;9.466;2023-01-31T13:29:17;97756.00;;;6.18;80.66
12973;BME280;6551;51.056;9.466;2023-01-31T13:32:10;97761.84;;;6.35;80.81
12973;BME280;6551;51.056;9.466;2023-01-31T13:35:17;97755.25;;;6.24;81.30
12973;BME280;6551;51.056;9.466;2023-01-31T13:38:10;97762.78;;;6.27;80.67
12973;BME280;6551;51.056;9.466;2023-01-31T13:40:50;97752.47;;;6.32;80.93
12973;BME280;6551;51.056;9.466;2023-01-31T13:43:17;97739.72;;;6.00;81.64
12973;BME280;6551;51.056;9.466;2023-01-31T13:45:53;97751.63;;;5.89;83.50
12973;BME280;6551;51.056;9.466;2023-01-31T13:48:37;97734.03;;;5.97;82.77
12973;BME280;6551;51.056;9.466;2023-01-31T13:54:15;97754.22;;;6.04;82.91
12973;BME280;6551;51.056;9.466;2023-01-31T13:56:51;97750.06;;;5.95;82.93
12973;BME280;6551;51.056;9.466;2023-01-31T13:59:26;97753.06;;;5.92;83.04
12973;BME280;6551;51.056;9.466;2023-01-31T14:02:17;97752.25;;;5.92;83.44
12973;BME280;6551;51.056;9.466;2023-01-31T14:04:44;97760.81;;;5.79;83.74
12973;BME280;6551;51.056;9.466;2023-01-31T14:07:15;97756.38;;;5.79;84.36
12973;BME280;6551;51.056;9.466;2023-01-31T14:12:39;97745.56;;;5.60;84.63
12973;BME280;6551;51.056;9.466;2023-01-31T14:15:46;97741.72;;;5.62;84.82
12973;BME280;6551;51.056;9.466;2023-01-31T14:18:44;97757.78;;;5.61;84.68
12973;BME280;6551;51.056;9.466;2023-01-31T14:24:02;97752.88;;;5.58;85.35
12973;BME280;6551;51.056;9.466;2023-01-31T14:29:28;97754.75;;;5.64;84.44
12973;BME280;6551;51.056;9.466;2023-01-31T14:31:59;97751.09;;;5.65;84.92
12973;BME280;6551;51.056;9.466;2023-01-31T14:34:28;97770.97;;;5.61;84.39
12973;BME280;6551;51.056;9.466;2023-01-31T14:44:20;97770.50;;;5.72;84.08
12973;BME280;6551;51.056;9.466;2023-01-31T14:53:05;97759.47;;;5.68;84.03
12973;BME280;6551;51.056;9.466;2023-01-31T14:58:50;97745.19;;;5.63;84.39
12973;BME280;6551;51.056;9.466;2023-01-31T15:01:20;97778.50;;;5.78;83.74
12973;BME280;6551;51.056;9.466;2023-01-31T15:03:56;97776.53;;;5.66;84.45
12973;BME280;6551;51.056;9.466;2023-01-31T15:06:38;97764.91;;;5.81;84.01
12973;BME280;6551;51.056;9.466;2023-01-31T15:11:47;97768.03;;;5.70;84.47
12973;BME280;6551;51.056;9.466;2023-01-31T15:14:43;97765.03;;;5.73;84.50
12973;BME280;6551;51.056;9.466;2023-01-31T15:17:23;97765.22;;;5.72;84.70
12973;BME280;6551;51.056;9.466;2023-01-31T15:20:41;97777.03;;;5.91;84.56
12973;BME280;6551;51.056;9.466;2023-01-31T15:23:23;97778.94;;;5.82;84.52
12973;BME280;6551;51.056;9.466;2023-01-31T15:25:51;97763.91;;;5.82;85.13
12973;BME280;6551;51.056;9.466;2023-01-31T15:28:27;97769.28;;;5.89;84.56
12973;BME280;6551;51.056;9.466;2023-01-31T15:31:02;97764.91;;;5.81;85.13
12973;BME280;6551;51.056;9.466;2023-01-31T15:33:37;97750.06;;;5.80;85.27
12973;BME280;6551;51.056;9.466;2023-01-31T15:36:37;97750.75;;;5.68;85.23
12973;BME280;6551;51.056;9.466;2023-01-31T15:39:27;97759.63;;;5.96;85.01
12973;BME280;6551;51.056;9.466;2023-01-31T15:41:55;97769.38;;;5.96;84.70
12973;BME280;6551;51.056;9.466;2023-01-31T15:44:26;97757.56;;;6.13;84.76
12973;BME280;6551;51.056;9.466;2023-01-31T15:46:55;97760.38;;;5.90;84.95
12973;BME280;6551;51.056;9.466;2023-01-31T15:49:32;97766.00;;;6.02;85.50
12973;BME280;6551;51.056;9.466;2023-01-31T15:52:21;97763.47;;;6.15;84.85
12973;BME280;6551;51.056;9.466;2023-01-31T15:55:03;97774.56;;;5.89;84.97
12973;BME280;6551;51.056;9.466;2023-01-31T15:57:55;97780.28;;;6.07;85.35
12973;BME280;6551;51.056;9.466;2023-01-31T16:00:31;97774.41;;;5.91;85.50